Abilene, Kansas
Current Conditions -  °F | °C
As of 5:53 AM on Sunday 21 Dec 2014 (Local Time) from KSLN Reporting Station
Haze Haze  
Wind Chill: 33°   Ceiling: 700
Heat Index: 41°   Visibility: 6mi
Dew Point: 38°   Wind: 16mph
Humidity: 89%   Direction: 200°SSW
Pressure: 29.97"   Gusts: NA
Location:  38.92°N, 97.21°W
Report Text: KSLN 211153Z AUTO 20014KT 6SM BR OVC007 05/03 A2997 RMK AO2 SLP151 T00500033 10056 20017 58012
Loading
Personal Weather Stations






























Interactive Weather Map New forecast layout! Learn more

10-Day Weather Forecast

Advertisements
Track Severe Weather on mobile